sensor_id;sensor_type;location;lat;lon;timestamp;P1;durP1;ratioP1;P2;durP2;ratioP2
62693;SDS011;48759;52.544;13.418;2024-02-23T00:00:22;1.73;;;1.33;;
62693;SDS011;48759;52.544;13.418;2024-02-23T00:02:48;1.97;;;1.40;;
62693;SDS011;48759;52.544;13.418;2024-02-23T00:05:14;1.50;;;1.40;;
62693;SDS011;48759;52.544;13.418;2024-02-23T00:07:43;4.30;;;1.53;;
62693;SDS011;48759;52.544;13.418;2024-02-23T00:10:09;3.13;;;1.63;;
62693;SDS011;48759;52.544;13.418;2024-02-23T00:12:36;1.50;;;1.40;;
62693;SDS011;48759;52.544;13.418;2024-02-23T00:15:02;4.60;;;1.30;;
62693;SDS011;48759;52.544;13.418;2024-02-23T00:17:29;1.63;;;1.27;;
62693;SDS011;48759;52.544;13.418;2024-02-23T00:19:56;1.67;;;1.40;;
62693;SDS011;48759;52.544;13.418;2024-02-23T00:22:23;1.60;;;1.50;;
62693;SDS011;48759;52.544;13.418;2024-02-23T00:24:52;1.27;;;1.20;;
62693;SDS011;48759;52.544;13.418;2024-02-23T00:27:18;1.80;;;1.60;;
62693;SDS011;48759;52.544;13.418;2024-02-23T00:29:45;1.30;;;1.20;;
62693;SDS011;48759;52.544;13.418;2024-02-23T00:32:11;1.60;;;1.50;;
62693;SDS011;48759;52.544;13.418;2024-02-23T00:34:38;1.30;;;1.30;;
62693;SDS011;48759;52.544;13.418;2024-02-23T00:37:05;1.73;;;1.63;;
62693;SDS011;48759;52.544;13.418;2024-02-23T00:39:33;1.50;;;1.40;;
62693;SDS011;48759;52.544;13.418;2024-02-23T00:42:00;1.40;;;1.30;;
62693;SDS011;48759;52.544;13.418;2024-02-23T00:44:27;2.30;;;1.30;;
62693;SDS011;48759;52.544;13.418;2024-02-23T00:46:53;1.43;;;1.33;;
62693;SDS011;48759;52.544;13.418;2024-02-23T00:49:22;7.67;;;1.57;;
62693;SDS011;48759;52.544;13.418;2024-02-23T00:51:50;1.43;;;1.33;;
62693;SDS011;48759;52.544;13.418;2024-02-23T00:54:17;1.43;;;1.33;;
62693;SDS011;48759;52.544;13.418;2024-02-23T00:56:43;1.63;;;1.37;;
62693;SDS011;48759;52.544;13.418;2024-02-23T00:59:12;1.43;;;1.33;;
62693;SDS011;48759;52.544;13.418;2024-02-23T01:01:38;2.10;;;1.50;;
62693;SDS011;48759;52.544;13.418;2024-02-23T01:04:05;1.77;;;1.67;;
62693;SDS011;48759;52.544;13.418;2024-02-23T01:06:31;1.70;;;1.60;;
62693;SDS011;48759;52.544;13.418;2024-02-23T01:08:58;2.40;;;1.93;;
62693;SDS011;48759;52.544;13.418;2024-02-23T01:11:24;2.10;;;1.90;;
62693;SDS011;48759;52.544;13.418;2024-02-23T01:13:50;2.67;;;1.50;;
62693;SDS011;48759;52.544;13.418;2024-02-23T01:16:18;1.70;;;1.60;;
62693;SDS011;48759;52.544;13.418;2024-02-23T01:18:45;1.90;;;1.70;;
62693;SDS011;48759;52.544;13.418;2024-02-23T01:21:12;2.50;;;1.50;;
62693;SDS011;48759;52.544;13.418;2024-02-23T01:23:39;2.60;;;1.60;;
62693;SDS011;48759;52.544;13.418;2024-02-23T01:26:06;1.53;;;1.43;;
62693;SDS011;48759;52.544;13.418;2024-02-23T01:28:32;2.60;;;1.50;;
62693;SDS011;48759;52.544;13.418;2024-02-23T01:30:59;1.87;;;1.77;;
62693;SDS011;48759;52.544;13.418;2024-02-23T01:33:27;1.67;;;1.57;;
62693;SDS011;48759;52.544;13.418;2024-02-23T01:35:53;3.53;;;1.60;;
62693;SDS011;48759;52.544;13.418;2024-02-23T01:38:21;1.93;;;1.77;;
62693;SDS011;48759;52.544;13.418;2024-02-23T01:40:50;1.70;;;1.60;;
62693;SDS011;48759;52.544;13.418;2024-02-23T01:43:16;1.80;;;1.70;;
62693;SDS011;48759;52.544;13.418;2024-02-23T01:45:42;2.83;;;1.40;;
62693;SDS011;48759;52.544;13.418;2024-02-23T01:48:09;1.83;;;1.67;;
62693;SDS011;48759;52.544;13.418;2024-02-23T01:50:37;1.93;;;1.83;;
62693;SDS011;48759;52.544;13.418;2024-02-23T01:53:03;2.90;;;1.80;;
62693;SDS011;48759;52.544;13.418;2024-02-23T01:55:30;2.30;;;1.70;;
62693;SDS011;48759;52.544;13.418;2024-02-23T01:57:57;1.50;;;1.37;;
62693;SDS011;48759;52.544;13.418;2024-02-23T02:00:24;2.30;;;1.67;;
62693;SDS011;48759;52.544;13.418;2024-02-23T02:02:50;2.43;;;1.70;;
62693;SDS011;48759;52.544;13.418;2024-02-23T02:05:17;1.70;;;1.50;;
62693;SDS011;48759;52.544;13.418;2024-02-23T02:07:45;2.33;;;1.20;;
62693;SDS011;48759;52.544;13.418;2024-02-23T02:10:13;1.47;;;1.37;;
62693;SDS011;48759;52.544;13.418;2024-02-23T02:12:40;1.50;;;1.20;;
62693;SDS011;48759;52.544;13.418;2024-02-23T02:15:06;1.40;;;1.30;;
62693;SDS011;48759;52.544;13.418;2024-02-23T02:17:33;1.30;;;1.20;;
62693;SDS011;48759;52.544;13.418;2024-02-23T02:19:59;4.33;;;1.17;;
62693;SDS011;48759;52.544;13.418;2024-02-23T02:22:29;1.80;;;1.10;;
62693;SDS011;48759;52.544;13.418;2024-02-23T02:24:57;1.00;;;1.00;;
62693;SDS011;48759;52.544;13.418;2024-02-23T02:27:23;1.23;;;1.13;;
62693;SDS011;48759;52.544;13.418;2024-02-23T02:29:50;2.50;;;1.13;;
62693;SDS011;48759;52.544;13.418;2024-02-23T02:32:16;1.53;;;1.00;;
62693;SDS011;48759;52.544;13.418;2024-02-23T02:34:43;2.20;;;1.10;;
62693;SDS011;48759;52.544;13.418;2024-02-23T02:37:09;1.10;;;1.10;;
62693;SDS011;48759;52.544;13.418;2024-02-23T02:39:36;1.03;;;0.87;;
62693;SDS011;48759;52.544;13.418;2024-02-23T02:42:04;2.40;;;1.00;;
62693;SDS011;48759;52.544;13.418;2024-02-23T02:44:31;1.27;;;1.13;;
62693;SDS011;48759;52.544;13.418;2024-02-23T02:46:57;1.03;;;0.93;;
62693;SDS011;48759;52.544;13.418;2024-02-23T02:49:23;1.27;;;1.17;;
62693;SDS011;48759;52.544;13.418;2024-02-23T02:51:50;0.90;;;0.90;;
62693;SDS011;48759;52.544;13.418;2024-02-23T02:54:16;0.80;;;0.80;;
62693;SDS011;48759;52.544;13.418;2024-02-23T02:56:43;2.00;;;1.20;;
62693;SDS011;48759;52.544;13.418;2024-02-23T02:59:12;1.00;;;0.90;;
62693;SDS011;48759;52.544;13.418;2024-02-23T03:01:39;1.00;;;0.90;;
62693;SDS011;48759;52.544;13.418;2024-02-23T03:04:06;1.33;;;1.00;;
62693;SDS011;48759;52.544;13.418;2024-02-23T03:06:32;0.93;;;0.93;;
62693;SDS011;48759;52.544;13.418;2024-02-23T03:08:58;1.10;;;1.00;;
62693;SDS011;48759;52.544;13.418;2024-02-23T03:11:25;0.90;;;0.90;;
62693;SDS011;48759;52.544;13.418;2024-02-23T03:13:52;1.63;;;1.00;;
62693;SDS011;48759;52.544;13.418;2024-02-23T03:16:20;1.10;;;1.10;;
62693;SDS011;48759;52.544;13.418;2024-02-23T03:18:48;1.43;;;1.00;;
62693;SDS011;48759;52.544;13.418;2024-02-23T03:21:15;0.80;;;0.80;;
62693;SDS011;48759;52.544;13.418;2024-02-23T03:23:42;0.87;;;0.87;;
62693;SDS011;48759;52.544;13.418;2024-02-23T03:26:10;0.93;;;0.93;;
62693;SDS011;48759;52.544;13.418;2024-02-23T03:28:36;5.20;;;1.20;;
62693;SDS011;48759;52.544;13.418;2024-02-23T03:31:03;0.80;;;0.80;;
62693;SDS011;48759;52.544;13.418;2024-02-23T03:33:30;1.90;;;0.90;;
62693;SDS011;48759;52.544;13.418;2024-02-23T03:35:57;1.00;;;1.00;;
62693;SDS011;48759;52.544;13.418;2024-02-23T03:38:24;3.33;;;1.23;;
62693;SDS011;48759;52.544;13.418;2024-02-23T03:40:50;1.03;;;0.80;;
62693;SDS011;48759;52.544;13.418;2024-02-23T03:43:17;2.07;;;1.00;;
62693;SDS011;48759;52.544;13.418;2024-02-23T03:45:43;2.20;;;0.87;;
62693;SDS011;48759;52.544;13.418;2024-02-23T03:48:11;1.70;;;1.27;;
62693;SDS011;48759;52.544;13.418;2024-02-23T03:50:39;1.03;;;1.03;;
62693;SDS011;48759;52.544;13.418;2024-02-23T03:53:05;1.20;;;0.90;;
62693;SDS011;48759;52.544;13.418;2024-02-23T03:55:31;0.90;;;0.90;;
62693;SDS011;48759;52.544;13.418;2024-02-23T03:57:58;1.77;;;1.13;;
62693;SDS011;48759;52.544;13.418;2024-02-23T04:00:24;0.83;;;0.83;;
62693;SDS011;48759;52.544;13.418;2024-02-23T04:02:51;0.70;;;0.70;;
62693;SDS011;48759;52.544;13.418;2024-02-23T04:05:18;1.00;;;1.00;;
62693;SDS011;48759;52.544;13.418;2024-02-23T04:07:46;1.00;;;0.90;;
62693;SDS011;48759;52.544;13.418;2024-02-23T04:10:13;1.43;;;1.10;;
62693;SDS011;48759;52.544;13.418;2024-02-23T04:12:41;1.20;;;1.10;;
62693;SDS011;48759;52.544;13.418;2024-02-23T04:15:08;0.70;;;0.70;;
62693;SDS011;48759;52.544;13.418;2024-02-23T04:17:34;1.73;;;1.07;;
62693;SDS011;48759;52.544;13.418;2024-02-23T04:20:01;1.03;;;0.90;;
62693;SDS011;48759;52.544;13.418;2024-02-23T04:22:31;1.13;;;0.93;;
62693;SDS011;48759;52.544;13.418;2024-02-23T04:24:59;1.17;;;1.07;;
62693;SDS011;48759;52.544;13.418;2024-02-23T04:27:26;2.73;;;1.00;;
62693;SDS011;48759;52.544;13.418;2024-02-23T04:29:52;1.30;;;1.20;;
62693;SDS011;48759;52.544;13.418;2024-02-23T04:32:19;1.23;;;0.80;;
62693;SDS011;48759;52.544;13.418;2024-02-23T04:34:45;1.83;;;1.40;;
62693;SDS011;48759;52.544;13.418;2024-02-23T04:37:11;0.73;;;0.73;;
62693;SDS011;48759;52.544;13.418;2024-02-23T04:39:38;2.23;;;1.13;;
62693;SDS011;48759;52.544;13.418;2024-02-23T04:42:08;1.57;;;1.00;;
62693;SDS011;48759;52.544;13.418;2024-02-23T04:44:34;0.80;;;0.80;;
62693;SDS011;48759;52.544;13.418;2024-02-23T04:47:01;1.10;;;0.90;;
62693;SDS011;48759;52.544;13.418;2024-02-23T04:49:27;2.33;;;1.20;;
62693;SDS011;48759;52.544;13.418;2024-02-23T04:51:54;1.27;;;1.10;;
62693;SDS011;48759;52.544;13.418;2024-02-23T04:54:20;1.27;;;1.10;;
62693;SDS011;48759;52.544;13.418;2024-02-23T04:56:46;3.20;;;1.20;;
62693;SDS011;48759;52.544;13.418;2024-02-23T04:59:15;1.00;;;0.90;;
62693;SDS011;48759;52.544;13.418;2024-02-23T05:01:41;0.83;;;0.83;;
62693;SDS011;48759;52.544;13.418;2024-02-23T05:04:08;0.90;;;0.90;;
62693;SDS011;48759;52.544;13.418;2024-02-23T05:06:34;1.53;;;0.93;;
62693;SDS011;48759;52.544;13.418;2024-02-23T05:09:01;2.00;;;1.00;;
62693;SDS011;48759;52.544;13.418;2024-02-23T05:11:27;0.80;;;0.80;;
62693;SDS011;48759;52.544;13.418;2024-02-23T05:13:54;11.43;;;1.10;;
62693;SDS011;48759;52.544;13.418;2024-02-23T05:16:22;1.40;;;0.90;;
62693;SDS011;48759;52.544;13.418;2024-02-23T05:18:48;0.80;;;0.80;;
62693;SDS011;48759;52.544;13.418;2024-02-23T05:21:15;0.80;;;0.80;;
62693;SDS011;48759;52.544;13.418;2024-02-23T05:23:42;4.30;;;0.90;;
62693;SDS011;48759;52.544;13.418;2024-02-23T05:26:08;0.77;;;0.77;;
62693;SDS011;48759;52.544;13.418;2024-02-23T05:28:37;0.83;;;0.83;;
62693;SDS011;48759;52.544;13.418;2024-02-23T05:31:04;0.80;;;0.80;;
62693;SDS011;48759;52.544;13.418;2024-02-23T05:33:31;0.90;;;0.90;;
62693;SDS011;48759;52.544;13.418;2024-02-23T05:35:58;1.07;;;0.97;;
62693;SDS011;48759;52.544;13.418;2024-02-23T05:38:24;2.00;;;0.93;;
62693;SDS011;48759;52.544;13.418;2024-02-23T05:40:51;0.87;;;0.80;;
62693;SDS011;48759;52.544;13.418;2024-02-23T05:43:17;0.90;;;0.90;;
62693;SDS011;48759;52.544;13.418;2024-02-23T05:45:43;0.80;;;0.80;;
62693;SDS011;48759;52.544;13.418;2024-02-23T05:48:10;1.10;;;0.80;;
62693;SDS011;48759;52.544;13.418;2024-02-23T05:50:38;0.90;;;0.90;;
62693;SDS011;48759;52.544;13.418;2024-02-23T05:53:04;0.80;;;0.80;;
62693;SDS011;48759;52.544;13.418;2024-02-23T05:55:31;0.80;;;0.80;;
62693;SDS011;48759;52.544;13.418;2024-02-23T05:57:57;1.50;;;1.00;;
62693;SDS011;48759;52.544;13.418;2024-02-23T06:00:24;0.73;;;0.73;;
62693;SDS011;48759;52.544;13.418;2024-02-23T06:02:50;0.97;;;0.80;;
62693;SDS011;48759;52.544;13.418;2024-02-23T06:05:16;0.90;;;0.90;;
62693;SDS011;48759;52.544;13.418;2024-02-23T06:07:44;1.50;;;1.00;;
62693;SDS011;48759;52.544;13.418;2024-02-23T06:10:11;0.70;;;0.70;;
62693;SDS011;48759;52.544;13.418;2024-02-23T06:12:37;0.73;;;0.73;;
62693;SDS011;48759;52.544;13.418;2024-02-23T06:15:05;1.00;;;0.80;;
62693;SDS011;48759;52.544;13.418;2024-02-23T06:17:31;0.90;;;0.90;;
62693;SDS011;48759;52.544;13.418;2024-02-23T06:19:58;0.90;;;0.90;;
62693;SDS011;48759;52.544;13.418;2024-02-23T06:22:24;0.70;;;0.70;;
62693;SDS011;48759;52.544;13.418;2024-02-23T06:24:55;0.97;;;0.80;;
62693;SDS011;48759;52.544;13.418;2024-02-23T06:27:21;1.17;;;0.90;;
62693;SDS011;48759;52.544;13.418;2024-02-23T06:29:48;0.80;;;0.80;;
62693;SDS011;48759;52.544;13.418;2024-02-23T06:32:15;0.80;;;0.80;;
62693;SDS011;48759;52.544;13.418;2024-02-23T06:34:41;0.80;;;0.80;;
62693;SDS011;48759;52.544;13.418;2024-02-23T06:37:10;1.00;;;0.90;;
62693;SDS011;48759;52.544;13.418;2024-02-23T06:39:39;2.47;;;2.20;;
62693;SDS011;48759;52.544;13.418;2024-02-23T06:45:25;1.00;;;0.90;;
62693;SDS011;48759;52.544;13.418;2024-02-23T06:47:52;0.97;;;0.97;;
62693;SDS011;48759;52.544;13.418;2024-02-23T06:50:20;2.63;;;1.00;;
62693;SDS011;48759;52.544;13.418;2024-02-23T06:52:47;0.80;;;0.80;;
62693;SDS011;48759;52.544;13.418;2024-02-23T06:55:14;0.70;;;0.70;;
62693;SDS011;48759;52.544;13.418;2024-02-23T06:57:42;0.97;;;0.80;;
62693;SDS011;48759;52.544;13.418;2024-02-23T07:00:15;2.13;;;0.93;;
62693;SDS011;48759;52.544;13.418;2024-02-23T07:02:45;0.90;;;0.90;;
62693;SDS011;48759;52.544;13.418;2024-02-23T07:05:11;0.80;;;0.80;;
62693;SDS011;48759;52.544;13.418;2024-02-23T07:07:39;0.83;;;0.83;;
62693;SDS011;48759;52.544;13.418;2024-02-23T07:10:06;1.00;;;0.90;;
62693;SDS011;48759;52.544;13.418;2024-02-23T07:12:33;3.80;;;1.00;;
62693;SDS011;48759;52.544;13.418;2024-02-23T07:15:00;5.00;;;1.10;;
62693;SDS011;48759;52.544;13.418;2024-02-23T07:17:27;0.97;;;0.90;;
62693;SDS011;48759;52.544;13.418;2024-02-23T07:19:54;1.13;;;1.00;;
62693;SDS011;48759;52.544;13.418;2024-02-23T07:22:28;0.80;;;0.80;;
62693;SDS011;48759;52.544;13.418;2024-02-23T07:24:54;1.10;;;1.00;;
62693;SDS011;48759;52.544;13.418;2024-02-23T07:27:21;1.03;;;1.03;;
62693;SDS011;48759;52.544;13.418;2024-02-23T07:29:47;0.90;;;0.90;;
62693;SDS011;48759;52.544;13.418;2024-02-23T07:32:14;1.83;;;0.93;;
62693;SDS011;48759;52.544;13.418;2024-02-23T07:34:41;1.83;;;1.03;;
62693;SDS011;48759;52.544;13.418;2024-02-23T07:37:09;5.40;;;1.00;;
62693;SDS011;48759;52.544;13.418;2024-02-23T07:39:35;1.00;;;1.00;;
62693;SDS011;48759;52.544;13.418;2024-02-23T07:42:02;1.47;;;0.90;;
62693;SDS011;48759;52.544;13.418;2024-02-23T07:44:28;3.23;;;1.00;;
62693;SDS011;48759;52.544;13.418;2024-02-23T07:46:55;1.10;;;1.10;;
62693;SDS011;48759;52.544;13.418;2024-02-23T07:49:23;0.90;;;0.90;;
62693;SDS011;48759;52.544;13.418;2024-02-23T07:51:49;1.00;;;0.90;;
62693;SDS011;48759;52.544;13.418;2024-02-23T07:54:17;1.83;;;1.10;;
62693;SDS011;48759;52.544;13.418;2024-02-23T07:56:44;0.90;;;0.90;;
62693;SDS011;48759;52.544;13.418;2024-02-23T07:59:10;3.77;;;1.10;;
62693;SDS011;48759;52.544;13.418;2024-02-23T08:01:36;0.90;;;0.90;;
62693;SDS011;48759;52.544;13.418;2024-02-23T08:04:05;4.03;;;1.00;;
62693;SDS011;48759;52.544;13.418;2024-02-23T08:06:31;1.20;;;1.10;;
62693;SDS011;48759;52.544;13.418;2024-02-23T08:08:58;1.60;;;1.00;;
62693;SDS011;48759;52.544;13.418;2024-02-23T08:11:26;1.20;;;1.10;;
62693;SDS011;48759;52.544;13.418;2024-02-23T08:13:52;1.10;;;1.10;;
62693;SDS011;48759;52.544;13.418;2024-02-23T08:16:18;3.17;;;1.20;;
62693;SDS011;48759;52.544;13.418;2024-02-23T08:18:45;0.90;;;0.90;;
62693;SDS011;48759;52.544;13.418;2024-02-23T08:21:11;1.20;;;1.20;;
62693;SDS011;48759;52.544;13.418;2024-02-23T08:23:38;1.27;;;1.10;;
62693;SDS011;48759;52.544;13.418;2024-02-23T08:26:05;1.00;;;0.93;;
62693;SDS011;48759;52.544;13.418;2024-02-23T08:28:33;1.17;;;1.07;;
62693;SDS011;48759;52.544;13.418;2024-02-23T08:30:59;1.80;;;1.17;;
62693;SDS011;48759;52.544;13.418;2024-02-23T08:33:26;4.00;;;1.10;;
62693;SDS011;48759;52.544;13.418;2024-02-23T08:35:52;0.90;;;0.90;;
62693;SDS011;48759;52.544;13.418;2024-02-23T08:38:19;1.20;;;1.10;;
62693;SDS011;48759;52.544;13.418;2024-02-23T08:40:45;1.40;;;1.30;;
62693;SDS011;48759;52.544;13.418;2024-02-23T08:43:12;3.13;;;1.40;;
62693;SDS011;48759;52.544;13.418;2024-02-23T08:45:41;1.30;;;1.20;;
62693;SDS011;48759;52.544;13.418;2024-02-23T08:48:07;1.20;;;1.20;;
62693;SDS011;48759;52.544;13.418;2024-02-23T08:50:33;1.13;;;1.00;;
62693;SDS011;48759;52.544;13.418;2024-02-23T08:53:00;1.90;;;1.20;;
62693;SDS011;48759;52.544;13.418;2024-02-23T08:55:27;1.07;;;1.07;;
62693;SDS011;48759;52.544;13.418;2024-02-23T08:57:53;1.83;;;0.90;;
62693;SDS011;48759;52.544;13.418;2024-02-23T09:00:20;2.30;;;1.20;;
62693;SDS011;48759;52.544;13.418;2024-02-23T09:02:49;5.03;;;1.07;;
62693;SDS011;48759;52.544;13.418;2024-02-23T09:05:15;0.93;;;0.93;;
62693;SDS011;48759;52.544;13.418;2024-02-23T09:07:41;1.93;;;1.10;;
62693;SDS011;48759;52.544;13.418;2024-02-23T09:10:08;1.70;;;1.13;;
62693;SDS011;48759;52.544;13.418;2024-02-23T09:12:35;1.10;;;1.10;;
62693;SDS011;48759;52.544;13.418;2024-02-23T09:15:01;1.00;;;1.00;;
62693;SDS011;48759;52.544;13.418;2024-02-23T09:17:28;1.20;;;1.10;;
62693;SDS011;48759;52.544;13.418;2024-02-23T09:19:55;3.23;;;1.10;;
62693;SDS011;48759;52.544;13.418;2024-02-23T09:22:22;3.10;;;1.17;;
62693;SDS011;48759;52.544;13.418;2024-02-23T09:24:48;1.20;;;1.10;;
62693;SDS011;48759;52.544;13.418;2024-02-23T09:27:15;1.30;;;1.20;;
62693;SDS011;48759;52.544;13.418;2024-02-23T09:29:41;1.20;;;1.10;;
62693;SDS011;48759;52.544;13.418;2024-02-23T09:32:08;4.40;;;1.07;;
62693;SDS011;48759;52.544;13.418;2024-02-23T09:34:34;0.87;;;0.87;;
62693;SDS011;48759;52.544;13.418;2024-02-23T09:37:02;5.50;;;1.20;;
62693;SDS011;48759;52.544;13.418;2024-02-23T09:39:28;2.10;;;1.37;;
62693;SDS011;48759;52.544;13.418;2024-02-23T09:41:56;1.80;;;1.20;;
62693;SDS011;48759;52.544;13.418;2024-02-23T09:44:23;1.87;;;1.17;;
62693;SDS011;48759;52.544;13.418;2024-02-23T09:46:49;1.00;;;1.00;;
62693;SDS011;48759;52.544;13.418;2024-02-23T09:49:17;1.03;;;0.97;;
62693;SDS011;48759;52.544;13.418;2024-02-23T09:51:44;1.97;;;0.93;;
62693;SDS011;48759;52.544;13.418;2024-02-23T09:54:12;1.60;;;1.00;;
62693;SDS011;48759;52.544;13.418;2024-02-23T09:56:38;1.67;;;1.20;;
62693;SDS011;48759;52.544;13.418;2024-02-23T09:59:05;0.90;;;0.80;;
62693;SDS011;48759;52.544;13.418;2024-02-23T10:01:32;1.83;;;1.00;;
62693;SDS011;48759;52.544;13.418;2024-02-23T10:04:00;1.80;;;0.90;;
62693;SDS011;48759;52.544;13.418;2024-02-23T10:06:28;1.07;;;0.97;;
62693;SDS011;48759;52.544;13.418;2024-02-23T10:08:55;2.03;;;0.90;;
62693;SDS011;48759;52.544;13.418;2024-02-23T10:11:23;1.40;;;0.97;;
62693;SDS011;48759;52.544;13.418;2024-02-23T10:13:50;1.47;;;0.90;;
62693;SDS011;48759;52.544;13.418;2024-02-23T10:16:17;1.50;;;1.20;;
62693;SDS011;48759;52.544;13.418;2024-02-23T10:18:45;2.37;;;1.20;;
62693;SDS011;48759;52.544;13.418;2024-02-23T10:21:12;0.90;;;0.90;;
62693;SDS011;48759;52.544;13.418;2024-02-23T10:23:38;1.03;;;0.93;;
62693;SDS011;48759;52.544;13.418;2024-02-23T10:26:04;1.17;;;0.90;;
62693;SDS011;48759;52.544;13.418;2024-02-23T10:28:32;1.00;;;1.00;;
62693;SDS011;48759;52.544;13.418;2024-02-23T10:31:00;2.10;;;1.33;;
62693;SDS011;48759;52.544;13.418;2024-02-23T10:33:27;1.10;;;1.00;;
62693;SDS011;48759;52.544;13.418;2024-02-23T10:35:56;1.37;;;1.03;;
62693;SDS011;48759;52.544;13.418;2024-02-23T10:38:23;1.87;;;1.10;;
62693;SDS011;48759;52.544;13.418;2024-02-23T10:40:51;3.80;;;1.00;;
62693;SDS011;48759;52.544;13.418;2024-02-23T10:43:28;1.50;;;0.90;;
62693;SDS011;48759;52.544;13.418;2024-02-23T10:45:58;1.13;;;1.03;;
62693;SDS011;48759;52.544;13.418;2024-02-23T10:48:27;1.30;;;1.20;;
62693;SDS011;48759;52.544;13.418;2024-02-23T10:50:56;2.30;;;1.03;;
62693;SDS011;48759;52.544;13.418;2024-02-23T10:53:24;1.23;;;0.90;;
62693;SDS011;48759;52.544;13.418;2024-02-23T10:55:51;1.47;;;1.00;;
62693;SDS011;48759;52.544;13.418;2024-02-23T10:58:18;1.60;;;1.03;;
62693;SDS011;48759;52.544;13.418;2024-02-23T11:00:44;1.70;;;1.13;;
62693;SDS011;48759;52.544;13.418;2024-02-23T11:03:13;1.77;;;1.30;;
62693;SDS011;48759;52.544;13.418;2024-02-23T11:05:41;1.43;;;0.93;;
62693;SDS011;48759;52.544;13.418;2024-02-23T11:08:07;1.13;;;1.00;;
62693;SDS011;48759;52.544;13.418;2024-02-23T11:10:41;1.67;;;1.10;;
62693;SDS011;48759;52.544;13.418;2024-02-23T11:13:08;2.00;;;1.07;;
62693;SDS011;48759;52.544;13.418;2024-02-23T11:15:34;2.00;;;1.33;;
62693;SDS011;48759;52.544;13.418;2024-02-23T11:20:53;4.73;;;1.60;;
62693;SDS011;48759;52.544;13.418;2024-02-23T11:23:19;2.93;;;1.63;;
62693;SDS011;48759;52.544;13.418;2024-02-23T11:25:58;2.60;;;1.37;;
62693;SDS011;48759;52.544;13.418;2024-02-23T11:28:24;3.93;;;1.50;;
62693;SDS011;48759;52.544;13.418;2024-02-23T11:30:51;1.70;;;1.30;;
62693;SDS011;48759;52.544;13.418;2024-02-23T11:33:25;2.10;;;1.40;;
62693;SDS011;48759;52.544;13.418;2024-02-23T11:35:53;8.80;;;2.13;;
62693;SDS011;48759;52.544;13.418;2024-02-23T11:38:20;1.97;;;1.20;;
62693;SDS011;48759;52.544;13.418;2024-02-23T11:40:47;1.50;;;1.20;;
62693;SDS011;48759;52.544;13.418;2024-02-23T11:43:15;1.87;;;1.10;;
62693;SDS011;48759;52.544;13.418;2024-02-23T11:45:46;5.10;;;1.33;;
62693;SDS011;48759;52.544;13.418;2024-02-23T11:48:12;2.03;;;1.23;;
62693;SDS011;48759;52.544;13.418;2024-02-23T11:50:39;1.20;;;1.10;;
62693;SDS011;48759;52.544;13.418;2024-02-23T11:53:07;3.47;;;1.70;;
62693;SDS011;48759;52.544;13.418;2024-02-23T11:55:34;4.67;;;1.83;;
62693;SDS011;48759;52.544;13.418;2024-02-23T11:58:01;1.33;;;1.23;;
62693;SDS011;48759;52.544;13.418;2024-02-23T12:00:27;1.73;;;1.10;;
62693;SDS011;48759;52.544;13.418;2024-02-23T12:02:55;1.67;;;1.30;;
62693;SDS011;48759;52.544;13.418;2024-02-23T12:05:21;1.80;;;1.20;;
62693;SDS011;48759;52.544;13.418;2024-02-23T12:07:48;2.20;;;1.40;;
62693;SDS011;48759;52.544;13.418;2024-02-23T12:10:16;3.07;;;1.63;;
62693;SDS011;48759;52.544;13.418;2024-02-23T12:12:42;3.30;;;1.50;;
62693;SDS011;48759;52.544;13.418;2024-02-23T12:15:09;1.40;;;1.30;;
62693;SDS011;48759;52.544;13.418;2024-02-23T12:17:35;2.30;;;1.60;;
62693;SDS011;48759;52.544;13.418;2024-02-23T12:20:02;2.60;;;1.90;;
62693;SDS011;48759;52.544;13.418;2024-02-23T12:22:29;5.20;;;1.40;;
62693;SDS011;48759;52.544;13.418;2024-02-23T12:24:56;5.73;;;1.70;;
62693;SDS011;48759;52.544;13.418;2024-02-23T12:27:24;1.50;;;1.40;;
62693;SDS011;48759;52.544;13.418;2024-02-23T12:29:52;3.60;;;1.20;;
62693;SDS011;48759;52.544;13.418;2024-02-23T12:32:20;3.17;;;1.30;;
62693;SDS011;48759;52.544;13.418;2024-02-23T12:34:47;3.70;;;1.47;;
62693;SDS011;48759;52.544;13.418;2024-02-23T12:37:14;1.50;;;1.40;;
62693;SDS011;48759;52.544;13.418;2024-02-23T12:39:40;1.87;;;1.30;;
62693;SDS011;48759;52.544;13.418;2024-02-23T12:42:07;2.80;;;1.37;;
62693;SDS011;48759;52.544;13.418;2024-02-23T12:44:35;2.60;;;1.60;;
62693;SDS011;48759;52.544;13.418;2024-02-23T12:47:04;3.70;;;1.70;;
62693;SDS011;48759;52.544;13.418;2024-02-23T12:49:31;4.97;;;1.40;;
62693;SDS011;48759;52.544;13.418;2024-02-23T12:51:59;2.87;;;1.90;;
62693;SDS011;48759;52.544;13.418;2024-02-23T12:54:26;2.17;;;1.20;;
62693;SDS011;48759;52.544;13.418;2024-02-23T12:56:52;3.00;;;2.20;;
62693;SDS011;48759;52.544;13.418;2024-02-23T12:59:19;6.17;;;1.77;;
62693;SDS011;48759;52.544;13.418;2024-02-23T13:01:47;3.20;;;1.40;;
62693;SDS011;48759;52.544;13.418;2024-02-23T13:04:13;2.03;;;1.40;;
62693;SDS011;48759;52.544;13.418;2024-02-23T13:06:41;2.60;;;1.33;;
62693;SDS011;48759;52.544;13.418;2024-02-23T13:09:12;2.77;;;1.20;;
62693;SDS011;48759;52.544;13.418;2024-02-23T13:11:41;1.23;;;1.13;;
62693;SDS011;48759;52.544;13.418;2024-02-23T13:14:08;3.30;;;1.60;;
62693;SDS011;48759;52.544;13.418;2024-02-23T13:16:35;2.93;;;1.50;;
62693;SDS011;48759;52.544;13.418;2024-02-23T13:19:04;3.10;;;1.60;;
62693;SDS011;48759;52.544;13.418;2024-02-23T13:21:35;2.07;;;1.40;;
62693;SDS011;48759;52.544;13.418;2024-02-23T13:24:04;2.67;;;1.50;;
62693;SDS011;48759;52.544;13.418;2024-02-23T13:26:33;1.47;;;1.30;;
62693;SDS011;48759;52.544;13.418;2024-02-23T13:29:00;1.60;;;1.50;;
62693;SDS011;48759;52.544;13.418;2024-02-23T13:31:29;1.50;;;1.40;;
62693;SDS011;48759;52.544;13.418;2024-02-23T13:33:55;3.20;;;1.57;;
62693;SDS011;48759;52.544;13.418;2024-02-23T13:36:23;2.70;;;1.30;;
62693;SDS011;48759;52.544;13.418;2024-02-23T13:38:50;2.40;;;1.40;;
62693;SDS011;48759;52.544;13.418;2024-02-23T13:41:17;4.20;;;1.67;;
62693;SDS011;48759;52.544;13.418;2024-02-23T13:43:44;4.03;;;1.50;;
62693;SDS011;48759;52.544;13.418;2024-02-23T13:46:11;5.03;;;1.50;;
62693;SDS011;48759;52.544;13.418;2024-02-23T13:48:37;4.70;;;1.50;;
62693;SDS011;48759;52.544;13.418;2024-02-23T13:51:06;2.47;;;1.40;;
62693;SDS011;48759;52.544;13.418;2024-02-23T13:53:34;5.00;;;1.43;;
62693;SDS011;48759;52.544;13.418;2024-02-23T13:56:02;2.30;;;1.40;;
62693;SDS011;48759;52.544;13.418;2024-02-23T13:58:28;2.73;;;1.57;;
62693;SDS011;48759;52.544;13.418;2024-02-23T14:00:55;7.03;;;1.40;;
62693;SDS011;48759;52.544;13.418;2024-02-23T14:03:22;3.53;;;1.63;;
62693;SDS011;48759;52.544;13.418;2024-02-23T14:05:48;1.77;;;1.27;;
62693;SDS011;48759;52.544;13.418;2024-02-23T14:08:15;3.17;;;1.60;;
62693;SDS011;48759;52.544;13.418;2024-02-23T14:10:43;2.40;;;1.70;;
62693;SDS011;48759;52.544;13.418;2024-02-23T14:13:10;4.20;;;2.47;;
62693;SDS011;48759;52.544;13.418;2024-02-23T14:15:37;3.03;;;1.63;;
62693;SDS011;48759;52.544;13.418;2024-02-23T14:18:03;4.33;;;1.80;;
62693;SDS011;48759;52.544;13.418;2024-02-23T14:20:30;2.70;;;1.43;;
62693;SDS011;48759;52.544;13.418;2024-02-23T14:22:56;1.93;;;1.40;;
62693;SDS011;48759;52.544;13.418;2024-02-23T14:25:23;3.17;;;2.10;;
62693;SDS011;48759;52.544;13.418;2024-02-23T14:27:51;8.10;;;6.00;;
62693;SDS011;48759;52.544;13.418;2024-02-23T14:30:18;6.30;;;4.07;;
62693;SDS011;48759;52.544;13.418;2024-02-23T14:32:44;5.47;;;4.80;;
62693;SDS011;48759;52.544;13.418;2024-02-23T14:35:10;6.43;;;3.90;;
62693;SDS011;48759;52.544;13.418;2024-02-23T14:37:37;3.13;;;2.93;;